Fort Benton, MT (59442)

5:51 PM MDT on September 01, 2014 (GMT -0600)
North Fort Benton | Change Station
CLOSE
Current Station
Personal Weather Station
Location: Fort Benton, MT
Elevation: 2641 ft
Nearby Weather Stations

Elev 2641 ft 47.83 °N, 110.66 °W | Updated 4 seconds ago

Overcast
Overcast
73.6 °F
Feels Like 76 °F
N
7.6
Wind Variable Wind from West
Gusts 11.4 mph

Today
High -- | Low -- °F
--% Chance of Precip.
Yesterday
High -- | Low -- °F
Precip. -- in
6:41 AM 8:03 PM
Waxing Crescent, 45% visible
Pressure 29.91 in
Visibility 10.0 miles
Clouds Mostly Cloudy 8000 ft
Heat Index 76 °F
Dew Point 36 °F
Humidity 25%
Rainfall 0.00 in
Snow Depth Not available.
UV 2 out of 12
Pollen 7.70 out of 12
Air Quality Not available.
Flu Activity Not available.
METAR KGFA 012256Z AUTO 25014G21KT 10SM BKN080 21/02 A2991 RMK AO2 SLP129 T02070021

More Conditions Fewer Conditions

Pressure 29.91 in
Visibility 10.0 miles
Clouds Mostly Cloudy 8000 ft
Heat Index 76 °F
Dew Point 36 °F
Humidity 25%
Rainfall 0.00 in
Snow Depth Not available.
UV 2 out of 12
Pollen 7.70 out of 12
Air Quality Not available.
Flu Activity Not available.
METAR KGFA 012256Z AUTO 25014G21KT 10SM BKN080 21/02 A2991 RMK AO2 SLP129 T02070021

More Conditions Fewer Conditions

10-Day Weather Forecast

Almanac

Astronomy

Sep. 01, 2014 Rise Set
Actual Time 6:41 AM MDT 8:03 PM MDT
Civil Twilight 6:08 AM MDT 8:35 PM MDT
Nautical Twilight 5:30 AM MDT 9:13 PM MDT
Astronomical Twilight 4:48 AM MDT 9:55 PM MDT
Moon 2:00 PM MDT 11:37 PM MDT
Length of Visible Light 14h 26m
Length of Day
13h 22m
Tomorrow will be 3m 21s shorter.
Waxing Crescent, 45% of the Moon is Illuminated
Today
Waxing Crescent
Sep 2
First Quarter
Sep 8
Full
Sep 15
Last Quarter
Sep 24
New

Today's Extremes

State Highs State Lows

Community

WunderPhotos

Upload Photos

1,749,440 photos uploaded!

Nearby

Snow Depth

Station Depth Elevation
Onion Park 0 in 7410 ft
Spur Park 0 in 8100 ft
Crystal Lake 0 in 6050 ft
Dupuyer Creek 0 in 5750 ft
Waldron 0 in 5600 ft

Earthquake Activity

City Distance Mag. Time & Date
No recent earthquake activity has been reported nearby.
Minimum magnitude displayed is 2.5.

Coastal Water Temperatures

Place Temperature
No Stations Reporting

Nearby Weather Stations